createdAt,value
2023-08-14T00:01:37.825Z,87.52
2023-08-14T00:04:06.230Z,87.40
2023-08-14T00:06:34.679Z,87.23
2023-08-14T00:09:03.824Z,87.10
2023-08-14T00:11:32.227Z,86.88
2023-08-14T00:14:01.064Z,86.76
2023-08-14T00:16:29.180Z,86.60
2023-08-14T00:18:57.196Z,86.56
2023-08-14T00:21:25.360Z,86.32
2023-08-14T00:23:53.467Z,86.33
2023-08-14T00:26:21.758Z,86.29
2023-08-14T00:28:50.031Z,85.88
2023-08-14T00:31:18.417Z,85.08
2023-08-14T00:33:46.727Z,85.29
2023-08-14T00:36:14.824Z,85.42
2023-08-14T00:38:42.913Z,85.65
2023-08-14T00:41:12.084Z,85.44
2023-08-14T00:43:40.361Z,86.53
2023-08-14T00:46:08.820Z,86.77
2023-08-14T00:48:38.575Z,86.96
2023-08-14T00:51:06.754Z,86.91
2023-08-14T00:53:34.927Z,86.92
2023-08-14T00:56:04.275Z,86.48
2023-08-14T00:58:32.603Z,86.40
2023-08-14T01:01:01.424Z,86.46
2023-08-14T01:03:30.057Z,86.64
2023-08-14T01:05:58.309Z,86.88
2023-08-14T01:08:26.495Z,86.66
2023-08-14T01:11:37.403Z,86.41
2023-08-14T01:14:24.499Z,86.43
2023-08-14T01:16:59.769Z,86.61
2023-08-14T01:19:37.935Z,86.57
2023-08-14T01:22:26.400Z,86.41
2023-08-14T01:24:54.358Z,86.12
2023-08-14T01:27:23.834Z,85.93
2023-08-14T01:29:58.178Z,86.02
2023-08-14T01:32:26.467Z,85.80
2023-08-14T01:34:56.588Z,85.86
2023-08-14T01:37:24.644Z,85.82
2023-08-14T01:40:04.837Z,85.90
2023-08-14T01:42:39.226Z,86.35
2023-08-14T01:45:18.424Z,86.52
2023-08-14T01:47:49.402Z,86.77
2023-08-14T01:50:19.322Z,86.91
2023-08-14T01:52:47.673Z,86.90
2023-08-14T01:55:16.270Z,86.64
2023-08-14T01:57:44.198Z,86.34
2023-08-14T02:00:12.730Z,86.51
2023-08-14T02:02:40.799Z,87.00
2023-08-14T02:05:09.148Z,87.08
2023-08-14T02:07:37.164Z,87.20
2023-08-14T02:10:05.695Z,87.01
2023-08-14T02:12:33.738Z,87.20
2023-08-14T02:15:04.706Z,87.45
2023-08-14T02:17:32.771Z,87.55
2023-08-14T02:20:00.826Z,87.65
2023-08-14T02:22:29.240Z,87.61
2023-08-14T02:24:57.311Z,87.81
2023-08-14T02:27:25.403Z,88.18
2023-08-14T02:29:53.512Z,88.46
2023-08-14T02:32:21.620Z,88.56
2023-08-14T02:34:51.384Z,88.51
2023-08-14T02:37:19.867Z,88.41
2023-08-14T02:39:49.180Z,88.13
2023-08-14T02:42:18.728Z,87.76
2023-08-14T02:44:49.169Z,87.73
2023-08-14T02:47:17.953Z,88.10
2023-08-14T02:49:45.917Z,88.34
2023-08-14T02:52:13.902Z,88.52
2023-08-14T02:54:41.990Z,88.50
2023-08-14T02:57:10.108Z,88.33
2023-08-14T02:59:38.195Z,88.29
2023-08-14T03:02:06.489Z,88.18
2023-08-14T03:04:35.097Z,88.13
2023-08-14T03:07:04.123Z,88.58
2023-08-14T03:09:32.274Z,88.90
2023-08-14T03:12:00.306Z,88.97
2023-08-14T03:14:28.620Z,89.09
2023-08-14T03:16:56.781Z,89.22
2023-08-14T03:19:25.157Z,89.17
2023-08-14T03:21:53.949Z,89.08
2023-08-14T03:24:22.451Z,89.08
2023-08-14T03:26:50.507Z,89.12
2023-08-14T03:29:19.507Z,89.24
2023-08-14T03:31:47.747Z,89.34
2023-08-14T03:34:15.889Z,89.03
2023-08-14T03:36:44.789Z,88.66
2023-08-14T03:39:14.416Z,88.51
2023-08-14T03:41:42.702Z,88.59
2023-08-14T03:44:10.740Z,88.55
2023-08-14T03:46:40.237Z,88.47
2023-08-14T03:49:09.511Z,88.60
2023-08-14T03:51:38.394Z,88.81
2023-08-14T03:54:07.631Z,88.84
2023-08-14T03:56:35.782Z,88.79
2023-08-14T03:59:06.029Z,88.55
2023-08-14T04:02:49.727Z,88.18
2023-08-14T04:05:18.496Z,88.01
2023-08-14T04:07:47.430Z,87.79
2023-08-14T04:10:15.458Z,87.52
2023-08-14T04:12:44.720Z,87.44
2023-08-14T04:15:16.424Z,87.35
2023-08-14T04:17:45.637Z,87.53
2023-08-14T04:20:14.250Z,87.56
2023-08-14T04:22:42.680Z,87.52
2023-08-14T04:25:11.012Z,87.65
2023-08-14T04:27:39.766Z,87.68
2023-08-14T04:34:37.362Z,88.43
2023-08-14T04:37:06.373Z,88.60
2023-08-14T04:39:36.220Z,88.70
2023-08-14T04:42:04.385Z,88.72
2023-08-14T04:44:32.506Z,88.35
2023-08-14T04:47:00.916Z,87.84
2023-08-14T04:49:31.027Z,87.43
2023-08-14T04:51:58.995Z,86.46
2023-08-14T04:54:28.380Z,85.35
2023-08-14T04:56:56.604Z,84.25
2023-08-14T04:59:24.719Z,84.90
2023-08-14T05:01:55.280Z,82.28
2023-08-14T05:04:24.640Z,78.10
2023-08-14T05:06:53.104Z,75.19
2023-08-14T05:09:27.118Z,62.52
2023-08-14T05:11:57.453Z,60.36
2023-08-14T05:14:25.429Z,61.49
2023-08-14T05:16:53.554Z,62.31
2023-08-14T05:19:21.594Z,63.16
2023-08-14T05:21:49.873Z,63.85
2023-08-14T05:24:17.962Z,64.50
2023-08-14T05:26:45.897Z,65.39
2023-08-14T05:29:13.989Z,65.75
2023-08-14T05:31:41.981Z,66.70
2023-08-14T05:34:10.210Z,69.16
2023-08-14T05:36:38.214Z,67.06
2023-08-14T05:39:07.160Z,62.78
2023-08-14T05:41:35.376Z,61.91
2023-08-14T05:44:03.469Z,60.53
2023-08-14T05:46:31.822Z,61.23
2023-08-14T05:48:59.781Z,60.67
2023-08-14T05:51:27.838Z,59.03
2023-08-14T05:53:56.005Z,58.84
2023-08-14T05:56:24.008Z,58.83
2023-08-14T05:58:52.045Z,59.30
2023-08-14T06:01:19.976Z,57.82
2023-08-14T06:03:48.099Z,58.07
2023-08-14T06:06:16.225Z,59.30
2023-08-14T06:08:44.238Z,56.96
2023-08-14T06:11:12.098Z,55.41
2023-08-14T06:13:40.239Z,55.53
2023-08-14T06:16:08.611Z,52.87
2023-08-14T06:18:37.695Z,53.35
2023-08-14T06:21:06.389Z,52.87
2023-08-14T06:23:35.722Z,53.81
2023-08-14T06:26:05.203Z,53.25
2023-08-14T06:28:33.296Z,54.36
2023-08-14T06:31:03.372Z,54.80
2023-08-14T06:33:32.061Z,54.84
2023-08-14T06:36:00.308Z,55.07
2023-08-14T06:38:28.575Z,55.83
2023-08-14T06:40:56.573Z,55.71
2023-08-14T06:43:24.661Z,56.20
2023-08-14T06:45:52.708Z,57.16
2023-08-14T06:48:21.068Z,57.30
2023-08-14T06:50:49.034Z,57.92
2023-08-14T06:53:17.030Z,58.43
2023-08-14T06:55:48.477Z,59.13
2023-08-14T06:58:16.576Z,59.40
2023-08-14T07:00:47.479Z,58.90
2023-08-14T07:03:15.798Z,58.60
2023-08-14T07:05:43.772Z,58.26
2023-08-14T07:08:11.647Z,57.34
2023-08-14T07:10:39.966Z,56.15
2023-08-14T07:13:32.621Z,55.49
2023-08-14T07:16:00.859Z,54.44
2023-08-14T07:18:29.476Z,54.09
2023-08-14T07:20:59.361Z,52.98
2023-08-14T07:23:27.308Z,53.55
2023-08-14T07:25:56.703Z,54.36
2023-08-14T07:28:24.934Z,55.10
2023-08-14T07:30:53.038Z,55.06
2023-08-14T07:33:20.922Z,55.29
2023-08-14T07:35:48.916Z,55.28
2023-08-14T07:38:16.853Z,56.04
2023-08-14T07:40:46.122Z,55.10
2023-08-14T07:43:14.237Z,54.90
2023-08-14T07:45:42.560Z,55.84
2023-08-14T07:48:10.917Z,56.24
2023-08-14T07:50:38.969Z,56.68
2023-08-14T07:53:07.309Z,57.78
2023-08-14T07:55:35.359Z,59.24
2023-08-14T07:58:03.410Z,60.53
2023-08-14T08:00:32.521Z,62.09
2023-08-14T08:03:00.545Z,63.01
2023-08-14T08:05:28.980Z,63.66
2023-08-14T08:07:57.339Z,64.10
2023-08-14T08:10:25.464Z,64.36
2023-08-14T08:12:53.598Z,64.49
2023-08-14T08:15:21.625Z,65.51
2023-08-14T08:17:49.795Z,65.73
2023-08-14T08:20:17.864Z,65.87
2023-08-14T08:22:46.102Z,65.93
2023-08-14T08:25:14.198Z,65.66
2023-08-14T08:27:42.197Z,65.46
2023-08-14T08:30:10.651Z,65.30
2023-08-14T08:32:39.380Z,65.59
2023-08-14T08:35:08.069Z,65.70
2023-08-14T08:37:36.087Z,65.94
2023-08-14T08:40:06.288Z,65.93
2023-08-14T08:42:34.436Z,65.74
2023-08-14T08:45:05.419Z,65.45
2023-08-14T08:47:37.266Z,65.79
2023-08-14T08:50:08.772Z,65.65
2023-08-14T08:52:38.150Z,65.17
2023-08-14T08:55:08.704Z,64.87
2023-08-14T08:57:39.597Z,64.61
2023-08-14T09:00:08.817Z,65.18
2023-08-14T09:02:37.639Z,65.74
2023-08-14T09:05:06.671Z,64.49
2023-08-14T09:07:35.297Z,63.84
2023-08-14T09:10:03.694Z,63.96
2023-08-14T09:12:32.005Z,64.00
2023-08-14T09:15:02.638Z,63.86
2023-08-14T09:17:30.835Z,63.77
2023-08-14T09:20:00.257Z,63.95
2023-08-14T09:22:29.048Z,63.53
2023-08-14T09:24:58.033Z,63.97
2023-08-14T09:27:27.733Z,64.14
2023-08-14T09:29:56.452Z,63.92
2023-08-14T09:32:25.836Z,64.68
2023-08-14T09:35:00.320Z,65.41
2023-08-14T09:37:28.440Z,65.54
2023-08-14T09:40:16.615Z,65.90
2023-08-14T09:42:45.841Z,66.15
2023-08-14T09:45:15.086Z,66.12
2023-08-14T09:47:45.575Z,65.34
2023-08-14T09:50:15.060Z,64.74
2023-08-14T09:52:46.720Z,64.45
2023-08-14T09:55:15.463Z,63.38
2023-08-14T09:57:43.588Z,63.57
2023-08-14T10:00:13.878Z,63.16
2023-08-14T10:02:42.264Z,62.14
2023-08-14T10:05:10.848Z,61.81
2023-08-14T10:07:40.333Z,61.63
2023-08-14T10:10:09.446Z,60.43
2023-08-14T10:12:47.601Z,60.37
2023-08-14T10:15:18.170Z,59.55
2023-08-14T10:17:56.511Z,57.93
2023-08-14T10:20:24.831Z,57.43
2023-08-14T10:22:56.719Z,57.37
2023-08-14T10:25:25.059Z,58.47
2023-08-14T10:27:53.450Z,58.20
2023-08-14T10:30:25.342Z,56.59
2023-08-14T10:32:53.652Z,55.51
2023-08-14T10:35:22.253Z,54.62
2023-08-14T10:38:00.801Z,56.45
2023-08-14T10:40:37.582Z,57.41
2023-08-14T10:43:08.272Z,56.61
2023-08-14T10:45:36.385Z,54.76
2023-08-14T10:48:09.526Z,55.95
2023-08-14T10:50:39.275Z,56.30
2023-08-14T10:53:07.777Z,54.74
2023-08-14T10:55:41.015Z,55.57
2023-08-14T10:58:28.074Z,56.01
2023-08-14T11:04:38.508Z,54.59
2023-08-14T11:07:10.405Z,54.98
2023-08-14T11:09:39.815Z,54.56
2023-08-14T11:12:09.660Z,55.16
2023-08-14T11:14:40.926Z,55.61
2023-08-14T11:17:11.808Z,55.69
2023-08-14T11:19:40.448Z,56.87
2023-08-14T11:22:09.226Z,57.05
2023-08-14T11:24:39.316Z,54.30
2023-08-14T11:27:07.649Z,54.27
2023-08-14T11:29:45.014Z,55.01
2023-08-14T11:32:23.710Z,55.57
2023-08-14T11:34:53.120Z,56.19
2023-08-14T11:37:21.326Z,55.63
2023-08-14T11:39:50.477Z,53.56
2023-08-14T11:42:19.106Z,53.53
2023-08-14T11:44:47.733Z,54.45
2023-08-14T11:47:18.316Z,53.04
2023-08-14T11:49:46.438Z,54.11
2023-08-14T11:52:14.638Z,52.70
2023-08-14T11:54:46.131Z,54.02
2023-08-14T11:57:14.980Z,53.32
2023-08-14T11:59:45.585Z,53.95
2023-08-14T12:02:13.498Z,53.98
2023-08-14T12:04:42.141Z,52.99
2023-08-14T12:07:10.603Z,54.42
2023-08-14T12:09:39.470Z,55.37
2023-08-14T12:12:07.774Z,55.43
2023-08-14T12:14:41.708Z,55.03
2023-08-14T12:17:16.972Z,54.21
2023-08-14T12:19:54.229Z,53.81
2023-08-14T12:22:23.998Z,52.72
2023-08-14T12:24:53.014Z,51.32
2023-08-14T12:27:24.300Z,51.17
2023-08-14T12:29:53.767Z,52.15
2023-08-14T12:32:23.812Z,50.82
2023-08-14T12:34:53.595Z,50.73
2023-08-14T12:37:22.144Z,51.86
2023-08-14T12:39:55.600Z,52.48
2023-08-14T12:42:23.765Z,51.84
2023-08-14T12:44:54.372Z,52.45
2023-08-14T12:47:23.029Z,52.45
2023-08-14T12:49:51.566Z,53.60
2023-08-14T12:52:19.728Z,54.37
2023-08-14T12:55:04.439Z,53.88
2023-08-14T12:57:34.430Z,54.34
2023-08-14T13:00:03.807Z,54.40
2023-08-14T13:02:35.259Z,52.91
2023-08-14T13:05:05.223Z,53.39
2023-08-14T13:07:34.230Z,53.48
2023-08-14T13:10:03.123Z,53.61
2023-08-14T13:12:31.423Z,53.66
2023-08-14T13:14:59.598Z,53.50
2023-08-14T13:17:28.500Z,53.59
2023-08-14T13:19:56.743Z,51.49
2023-08-14T13:22:25.072Z,52.44
2023-08-14T13:24:55.124Z,52.00
2023-08-14T13:27:23.554Z,52.33
2023-08-14T13:29:52.080Z,52.44
2023-08-14T13:32:20.610Z,52.08
2023-08-14T13:34:50.628Z,50.82
2023-08-14T13:37:18.901Z,52.25
2023-08-14T13:39:48.302Z,51.20
2023-08-14T13:42:16.300Z,49.39
2023-08-14T13:44:44.967Z,50.07
2023-08-14T13:47:12.935Z,49.36
2023-08-14T13:49:41.014Z,49.15
2023-08-14T13:52:08.988Z,49.72
2023-08-14T13:54:38.005Z,49.88
2023-08-14T13:57:06.497Z,50.73
2023-08-14T13:59:34.561Z,51.56
2023-08-14T14:02:04.011Z,52.71
2023-08-14T14:04:32.281Z,51.31
2023-08-14T14:07:00.203Z,50.72
2023-08-14T14:09:28.345Z,50.58
2023-08-14T14:11:56.280Z,50.83
2023-08-14T14:14:24.235Z,51.58
2023-08-14T14:16:56.090Z,51.63
2023-08-14T14:19:25.690Z,50.24
2023-08-14T14:21:55.920Z,51.40
2023-08-14T14:24:25.507Z,52.27
2023-08-14T14:26:53.931Z,53.42
2023-08-14T14:29:22.111Z,52.19
2023-08-14T14:31:50.081Z,53.05
2023-08-14T14:34:18.731Z,53.32
2023-08-14T14:36:46.957Z,53.15
2023-08-14T14:39:19.628Z,53.40
2023-08-14T14:41:48.937Z,53.75
2023-08-14T14:44:17.021Z,53.04
2023-08-14T14:46:45.361Z,53.64
2023-08-14T14:49:13.361Z,53.84
2023-08-14T14:51:41.292Z,53.06
2023-08-14T14:54:09.345Z,53.21
2023-08-14T14:56:38.445Z,54.33
2023-08-14T14:59:06.713Z,54.28
2023-08-14T15:01:34.716Z,54.64
2023-08-14T15:04:04.291Z,54.47
2023-08-14T15:06:32.531Z,54.52
2023-08-14T15:09:00.626Z,54.55
2023-08-14T15:11:28.695Z,53.88
2023-08-14T15:13:56.818Z,53.56
2023-08-14T15:16:25.157Z,53.34
2023-08-14T15:18:53.041Z,53.31
2023-08-14T15:21:21.093Z,53.55
2023-08-14T15:23:49.064Z,53.38
2023-08-14T15:26:17.167Z,53.01
2023-08-14T15:28:45.378Z,52.92
2023-08-14T15:31:16.236Z,53.60
2023-08-14T15:33:44.185Z,52.90
2023-08-14T15:36:12.169Z,52.76
2023-08-14T15:38:40.312Z,53.52
2023-08-14T15:41:11.950Z,53.49
2023-08-14T15:43:42.116Z,52.91
2023-08-14T15:46:10.206Z,52.17
2023-08-14T15:48:41.263Z,53.20
2023-08-14T15:51:09.295Z,52.62
2023-08-14T15:53:37.167Z,51.55
2023-08-14T15:56:05.183Z,51.58
2023-08-14T15:58:33.092Z,50.91
2023-08-14T16:01:01.060Z,51.36
2023-08-14T16:03:29.176Z,50.76
2023-08-14T16:05:58.750Z,50.51
2023-08-14T16:08:26.939Z,50.67
2023-08-14T16:10:54.868Z,49.94
2023-08-14T16:13:23.151Z,50.95
2023-08-14T16:15:51.168Z,50.90
2023-08-14T16:18:19.086Z,51.28
2023-08-14T16:20:47.126Z,50.23
2023-08-14T16:23:17.155Z,50.74
2023-08-14T16:25:45.205Z,50.67
2023-08-14T16:28:13.291Z,50.03
2023-08-14T16:30:41.711Z,49.86
2023-08-14T16:33:10.439Z,49.78
2023-08-14T16:35:39.540Z,49.86
2023-08-14T16:38:07.679Z,49.93
2023-08-14T16:40:42.819Z,50.31
2023-08-14T16:43:11.534Z,50.43
2023-08-14T16:45:40.893Z,50.52
2023-08-14T16:48:11.289Z,50.27
2023-08-14T16:50:40.503Z,50.39
2023-08-14T16:53:09.948Z,51.17
2023-08-14T16:55:38.371Z,51.12
2023-08-14T16:58:06.424Z,51.34
2023-08-14T17:00:34.517Z,51.57
2023-08-14T17:03:05.704Z,51.73
2023-08-14T17:05:33.844Z,51.38
2023-08-14T17:08:03.138Z,51.95
2023-08-14T17:10:33.171Z,52.15
2023-08-14T17:13:02.530Z,52.39
2023-08-14T17:15:41.521Z,52.46
2023-08-14T17:18:09.561Z,52.08
2023-08-14T17:20:44.532Z,51.91
2023-08-14T17:23:13.191Z,52.16
2023-08-14T17:25:41.405Z,52.53
2023-08-14T17:28:09.349Z,52.90
2023-08-14T17:30:40.634Z,53.09
2023-08-14T17:33:08.606Z,53.47
2023-08-14T17:35:36.706Z,53.87
2023-08-14T17:38:05.001Z,54.11
2023-08-14T17:40:33.709Z,54.52
2023-08-14T17:43:02.040Z,55.01
2023-08-14T17:45:30.944Z,55.49
2023-08-14T17:47:59.660Z,56.44
2023-08-14T17:50:29.391Z,57.04
2023-08-14T17:52:57.716Z,58.41
2023-08-14T17:55:25.679Z,60.16
2023-08-14T17:57:53.756Z,61.30
2023-08-14T18:00:22.982Z,61.79
2023-08-14T18:02:52.322Z,62.41
2023-08-14T18:05:20.490Z,63.37
2023-08-14T18:07:48.806Z,63.71
2023-08-14T18:10:16.842Z,64.45
2023-08-14T18:12:46.676Z,64.70
2023-08-14T18:15:14.780Z,65.04
2023-08-14T18:17:42.865Z,65.37
2023-08-14T18:20:11.864Z,66.07
2023-08-14T18:22:40.258Z,66.65
2023-08-14T18:25:08.647Z,67.11
2023-08-14T18:27:36.999Z,67.88
2023-08-14T18:30:05.500Z,68.47
2023-08-14T18:32:33.409Z,68.93
2023-08-14T18:35:01.297Z,69.26
2023-08-14T18:37:29.169Z,69.42
2023-08-14T18:39:57.211Z,69.45
2023-08-14T18:42:25.600Z,70.06
2023-08-14T18:44:53.530Z,70.77
2023-08-14T18:47:21.450Z,71.09
2023-08-14T18:49:49.406Z,71.46
2023-08-14T18:52:17.393Z,71.91
2023-08-14T18:54:48.792Z,72.19
2023-08-14T18:57:17.425Z,72.53
2023-08-14T18:59:47.884Z,72.45
2023-08-14T19:04:42.286Z,73.66
2023-08-14T19:07:12.215Z,73.69
2023-08-14T19:09:41.217Z,73.97
2023-08-14T19:12:09.323Z,74.55
2023-08-14T19:14:37.792Z,74.47
2023-08-14T19:17:06.146Z,74.72
2023-08-14T19:19:34.725Z,75.49
2023-08-14T19:22:03.003Z,76.40
2023-08-14T19:24:31.170Z,76.19
2023-08-14T19:26:59.076Z,76.54
2023-08-14T19:29:27.033Z,76.30
2023-08-14T19:31:55.011Z,75.85
2023-08-14T19:34:23.011Z,76.24
2023-08-14T19:36:51.204Z,77.09
2023-08-14T19:39:19.273Z,76.76
2023-08-14T19:41:50.816Z,77.13
2023-08-14T19:44:18.930Z,76.84
2023-08-14T19:46:47.047Z,77.30
2023-08-14T19:49:15.278Z,77.56
2023-08-14T19:51:43.559Z,79.20
2023-08-14T19:54:11.486Z,79.63
2023-08-14T19:56:39.693Z,78.70
2023-08-14T19:59:09.116Z,78.74
2023-08-14T20:01:37.924Z,79.20
2023-08-14T20:04:07.047Z,78.92
2023-08-14T20:06:35.386Z,79.15
2023-08-14T20:09:03.573Z,79.26
2023-08-14T20:11:31.909Z,79.78
2023-08-14T20:14:01.087Z,79.50
2023-08-14T20:16:29.512Z,79.83
2023-08-14T20:18:57.580Z,79.68
2023-08-14T20:21:25.760Z,80.14
2023-08-14T20:23:53.696Z,80.41
2023-08-14T20:26:21.767Z,80.43
2023-08-14T20:28:50.206Z,80.47
2023-08-14T20:31:19.711Z,80.58
2023-08-14T20:33:47.956Z,80.70
2023-08-14T20:36:20.334Z,81.08
2023-08-14T20:38:49.505Z,80.98
2023-08-14T20:41:18.188Z,81.10
2023-08-14T20:43:46.236Z,81.73
2023-08-14T20:46:15.279Z,82.81
2023-08-14T20:48:43.300Z,83.10
2023-08-14T20:51:11.576Z,82.50
2023-08-14T20:53:40.855Z,83.21
2023-08-14T20:56:08.966Z,82.54
2023-08-14T20:58:37.272Z,82.08
2023-08-14T21:01:05.963Z,81.32
2023-08-14T21:03:34.048Z,81.87
2023-08-14T21:06:02.227Z,82.97
2023-08-14T21:08:30.441Z,83.27
2023-08-14T21:11:00.728Z,82.78
2023-08-14T21:13:30.512Z,81.56
2023-08-14T21:15:59.525Z,83.22
2023-08-14T21:18:27.556Z,83.31
2023-08-14T21:20:55.691Z,83.05
2023-08-14T21:23:23.703Z,82.86
2023-08-14T21:25:51.657Z,83.07
2023-08-14T21:28:19.764Z,83.22
2023-08-14T21:30:47.956Z,83.45
2023-08-14T21:33:16.039Z,83.04
2023-08-14T21:35:46.895Z,83.67
2023-08-14T21:38:14.900Z,83.79
2023-08-14T21:40:42.954Z,84.10
2023-08-14T21:43:11.127Z,84.13
2023-08-14T21:45:41.213Z,83.35
2023-08-14T21:48:09.490Z,84.19
2023-08-14T21:50:38.749Z,84.84
2023-08-14T21:53:06.962Z,84.35
2023-08-14T21:55:35.003Z,84.27
2023-08-14T21:58:03.119Z,83.83
2023-08-14T22:00:31.285Z,83.95
2023-08-14T22:02:59.375Z,84.57
2023-08-14T22:05:27.516Z,84.31
2023-08-14T22:07:57.390Z,84.61
2023-08-14T22:10:25.382Z,83.92
2023-08-14T22:12:53.408Z,84.67
2023-08-14T22:15:24.737Z,84.77
2023-08-14T22:17:58.202Z,84.67
2023-08-14T22:20:26.386Z,84.08
2023-08-14T22:22:54.239Z,83.35
2023-08-14T22:25:22.919Z,83.79
2023-08-14T22:27:51.047Z,83.92
2023-08-14T22:30:19.113Z,84.02
2023-08-14T22:32:47.101Z,83.79
2023-08-14T22:35:15.595Z,83.50
2023-08-14T22:37:43.953Z,83.86
2023-08-14T22:40:12.089Z,83.94
2023-08-14T22:42:40.894Z,86.74
2023-08-14T22:45:09.824Z,88.64
2023-08-14T22:47:39.634Z,88.54
2023-08-14T22:50:09.806Z,87.96
2023-08-14T22:52:38.068Z,87.28
2023-08-14T22:55:07.077Z,87.57
2023-08-14T22:57:35.514Z,87.03
2023-08-14T23:00:04.363Z,87.89
2023-08-14T23:02:32.246Z,87.79
2023-08-14T23:05:00.146Z,87.16
2023-08-14T23:07:28.151Z,86.74
2023-08-14T23:09:56.056Z,86.32
2023-08-14T23:12:24.364Z,85.88
2023-08-14T23:14:52.713Z,85.61
2023-08-14T23:17:20.737Z,85.18
2023-08-14T23:19:48.772Z,85.00
2023-08-14T23:22:16.791Z,84.54
2023-08-14T23:24:44.833Z,85.36
2023-08-14T23:27:12.765Z,85.54
2023-08-14T23:29:41.670Z,84.97
2023-08-14T23:32:11.940Z,85.57
2023-08-14T23:34:41.176Z,85.87
2023-08-14T23:37:09.283Z,85.78
2023-08-14T23:39:37.259Z,85.97
2023-08-14T23:42:05.729Z,86.28
2023-08-14T23:44:33.625Z,86.14
2023-08-14T23:47:03.570Z,86.01
2023-08-14T23:49:31.629Z,85.72
2023-08-14T23:51:59.506Z,85.61
2023-08-14T23:54:27.367Z,85.63
2023-08-14T23:56:55.387Z,85.46
2023-08-14T23:59:23.414Z,85.43
